Olimpia — UBLF5 — position and weather

sailwx.info

Track history (hours):
 
Tides and Currents Weather Stations Pressure Air Temp Water Temp Dewpoint Dewpoint Depression Visibility Wind Speed Wind Dir Waves Ship Positions

Olimpia

Last reported at 2017-Dec-03 06:14 UTC. Time now 2017-Dec-13 11:19 UTC.
Position N 45°07' E 036°38'.
Warning: this ship's position is 10 days out of date.

Length 127 m; draft 4.6 m.

Type: Cargo ship. MMSI: 273332220.

Date/timePositionNaut miles runAvg speedWind from/ knotsBaromVisibWave heightAir tempDewpointWater temp
2017-Dec-03 06:14N 45°07' E 036°38'1 5.2
2017-Dec-03 06:00N 45°06' E 036°37'1 0.2
2017-Dec-03 00:23N 45°05' E 036°39'13 0.5
2017-Dec-01 23:21N 44°53' E 036°39'  
2017-Nov-25 03:11N 38°44' E 025°43'210.0
2017-Nov-25 03:00N 38°42' E 025°43'510.2
2017-Nov-25 02:28N 38°36' E 025°43'510.1
2017-Nov-25 02:00N 38°32' E 025°44'510.1
2017-Nov-25 01:29N 38°27' E 025°44'610.7
2017-Nov-25 00:56N 38°21' E 025°44'510.6
2017-Nov-25 00:26N 38°15' E 025°44'410.4
2017-Nov-25 00:00N 38°11' E 025°45'610.8
2017-Nov-24 23:29N 38°05' E 025°46'510.5
2017-Nov-24 23:00N 38°00' E 025°46'510.3
2017-Nov-24 22:30N 37°55' E 025°46'610.4
2017-Nov-24 21:58N 37°50' E 025°47'510.3
2017-Nov-24 21:26N 37°44' E 025°47'410.0
2017-Nov-24 21:00N 37°40' E 025°47'6 9.6
2017-Nov-24 20:25N 37°34' E 025°50'410.1
2017-Nov-24 20:00N 37°31' E 025°52'510.3
2017-Nov-24 19:30N 37°26' E 025°55'510.2
2017-Nov-24 19:00N 37°23' E 026°00'510.1
2017-Nov-24 18:30N 37°20' E 026°06'510.0
2017-Nov-24 18:00N 37°17' E 026°10'6 9.8
2017-Nov-24 17:25N 37°14' E 026°16'410.1
2017-Nov-24 17:00N 37°12' E 026°21'24 9.7
2017-Nov-24 14:34N 36°54' E 026°40'1 9.6
2017-Nov-24 14:30N 36°53' E 026°40'710.1
2017-Nov-24 13:49N 36°47' E 026°43'3 9.9
2017-Nov-24 13:30N 36°44' E 026°44'5 9.5
2017-Nov-24 13:00N 36°39' E 026°45'5 9.5
2017-Nov-24 12:29N 36°34' E 026°47'14 9.2
2017-Nov-24 10:59N 36°22' E 026°55'7 9.5
2017-Nov-24 10:15N 36°17' E 027°00'2 8.6
2017-Nov-24 10:00N 36°15' E 027°02'4 8.9
2017-Nov-24 09:30N 36°12' E 027°06'5 9.9
2017-Nov-24 09:00N 36°08' E 027°10'5 9.8
2017-Nov-24 08:30N 36°05' E 027°14'5 9.2
2017-Nov-24 08:00N 36°01' E 027°18'5 9.4
2017-Nov-24 07:30N 35°58' E 027°22'5 9.9
2017-Nov-24 07:01N 35°54' E 027°26'5 9.9
2017-Nov-24 06:30N 35°50' E 027°29'5 9.4
2017-Nov-24 05:59N 35°45' E 027°31'5 9.2
2017-Nov-24 05:25N 35°40' E 027°33'4 9.4
2017-Nov-24 05:00N 35°36' E 027°34'  
Track history (hours):
 
Tides and Currents Weather Stations Pressure Air Temp Water Temp Dewpoint Dewpoint Depression Visibility Wind Speed Wind Dir Waves Ship Positions

Olimpia

Last reported at 2017-Dec-03 06:14 UTC. Time now 2017-Dec-13 11:19 UTC.
Position N 45°07' E 036°38'.
Warning: this ship's position is 10 days out of date.

Length 127 m; draft 4.6 m.

Type: Cargo ship. MMSI: 273332220.

Date/timePositionNaut miles runAvg speedWind from/ knotsBaromVisibWave heightAir tempDewpointWater temp
2017-Dec-03 06:14N 45°07' E 036°38'1 5.2
2017-Dec-03 06:00N 45°06' E 036°37'1 0.2
2017-Dec-03 00:23N 45°05' E 036°39'13 0.5
2017-Dec-01 23:21N 44°53' E 036°39'  
2017-Nov-25 03:11N 38°44' E 025°43'210.0
2017-Nov-25 03:00N 38°42' E 025°43'510.2
2017-Nov-25 02:28N 38°36' E 025°43'510.1
2017-Nov-25 02:00N 38°32' E 025°44'510.1
2017-Nov-25 01:29N 38°27' E 025°44'610.7
2017-Nov-25 00:56N 38°21' E 025°44'510.6
2017-Nov-25 00:26N 38°15' E 025°44'410.4
2017-Nov-25 00:00N 38°11' E 025°45'610.8
2017-Nov-24 23:29N 38°05' E 025°46'510.5
2017-Nov-24 23:00N 38°00' E 025°46'510.3
2017-Nov-24 22:30N 37°55' E 025°46'610.4
2017-Nov-24 21:58N 37°50' E 025°47'510.3
2017-Nov-24 21:26N 37°44' E 025°47'410.0
2017-Nov-24 21:00N 37°40' E 025°47'6 9.6
2017-Nov-24 20:25N 37°34' E 025°50'410.1
2017-Nov-24 20:00N 37°31' E 025°52'510.3
2017-Nov-24 19:30N 37°26' E 025°55'510.2
2017-Nov-24 19:00N 37°23' E 026°00'510.1
2017-Nov-24 18:30N 37°20' E 026°06'510.0
2017-Nov-24 18:00N 37°17' E 026°10'6 9.8
2017-Nov-24 17:25N 37°14' E 026°16'410.1
2017-Nov-24 17:00N 37°12' E 026°21'24 9.7
2017-Nov-24 14:34N 36°54' E 026°40'1 9.6
2017-Nov-24 14:30N 36°53' E 026°40'710.1
2017-Nov-24 13:49N 36°47' E 026°43'3 9.9
2017-Nov-24 13:30N 36°44' E 026°44'5 9.5
2017-Nov-24 13:00N 36°39' E 026°45'5 9.5
2017-Nov-24 12:29N 36°34' E 026°47'14 9.2
2017-Nov-24 10:59N 36°22' E 026°55'7 9.5
2017-Nov-24 10:15N 36°17' E 027°00'2 8.6
2017-Nov-24 10:00N 36°15' E 027°02'4 8.9
2017-Nov-24 09:30N 36°12' E 027°06'5 9.9
2017-Nov-24 09:00N 36°08' E 027°10'5 9.8
2017-Nov-24 08:30N 36°05' E 027°14'5 9.2
2017-Nov-24 08:00N 36°01' E 027°18'5 9.4
2017-Nov-24 07:30N 35°58' E 027°22'5 9.9
2017-Nov-24 07:01N 35°54' E 027°26'5 9.9
2017-Nov-24 06:30N 35°50' E 027°29'5 9.4
2017-Nov-24 05:59N 35°45' E 027°31'5 9.2
2017-Nov-24 05:25N 35°40' E 027°33'4 9.4
2017-Nov-24 05:00N 35°36' E 027°34'  

Dump ship's entire track history